McAlisterville, Pennsylvania
Current Conditions -  °F | °C
As of 1:53 PM on Friday 24 Oct 2014 (Local Time) from KSEG Reporting Station
Clear Clear  
Wind Chill: 19°   Ceiling: Unl
Heat Index: 19°   Visibility: 10mi
Dew Point:   Wind: 10mph
Humidity: 31%   Direction: 290°WNW
Pressure: 29.89"   Gusts: 16mph
Location:  40.64°N, 77.27°W
Report Text: KSEG 241753Z AUTO 29009G14KT 10SM CLR 19/02 A2989 RMK AO2 SLP119 T01940017 10200 20100 58022
Loading
Personal Weather Stations






























Interactive Weather Map
Tropical Storm Tracking
New forecast layout! Learn more

10-Day Weather Forecast

Advertisements
Track Severe Weather on mobile